Airport View

Enter AWOS ICAO identifier for current METAR.

ex. KFNL

KMXO 201215Z AUTO 07003KT 1SM BR OVC002 00/00 A3009 RMK AO2

20 Nov 2019 12:16

Frequency: 119.275

Phone: 319-465-6155

Other Area AWOS: KDBQ - KCID - KIIB - KVTI

TAF KDBQ 201124Z 2012/2112 VRB03KT 1/2SM FG SCT001 OVC004 TEMPO 2012/2014 1/4SM FG VV001 FM201400 13005KT 3SM BR OVC007 FM201600 14010KT P6SM BKN100 FM210300 15015G22KT 5SM SHRA OVC040